Time;durP1;ratioP1;P1;durP2;ratioP2;P2;SDS_P1;SDS_P2;PMS_P1;PMS_P2;Temp;Humidity;BMP_temperature;BMP_pressure;BME280_temperature;BME280_humidity;BME280_pressure;Samples;Min_cycle;Max_cycle;Signal;HPM_P1;HPM_P2
2024/03/01 00:00:08;;;;;;;14.75;8.20;;;;;;;3.53;58.36;100758.50;4928053;28;20378;-70
2024/03/01 00:02:35;;;;;;;14.27;7.88;;;;;;;4.08;58.70;100854.81;4927730;28;20618;-74
2024/03/01 00:05:01;;;;;;;16.92;8.43;;;;;;;3.99;58.13;100842.47;4960039;28;20043;-71
2024/03/01 00:07:30;;;;;;;19.77;8.88;;;;;;;4.07;58.78;100853.06;4932452;28;20066;-72
2024/03/01 00:09:56;;;;;;;16.63;8.75;;;;;;;3.91;58.21;100831.91;4927798;28;20688;-73
2024/03/01 00:12:22;;;;;;;16.55;8.25;;;;;;;3.82;58.60;100812.69;4928968;28;20068;-72
2024/03/01 00:14:49;;;;;;;20.05;8.15;;;;;;;3.91;58.97;100826.75;4946928;28;20430;-71
2024/03/01 00:17:15;;;;;;;15.13;8.25;;;;;;;3.76;59.22;100811.63;4946284;28;20524;-72
2024/03/01 00:19:41;;;;;;;16.65;7.95;;;;;;;4.10;58.99;100854.84;4959910;28;20046;-70
2024/03/01 00:22:07;;;;;;;18.25;8.82;;;;;;;4.03;58.96;100826.28;4931101;28;20058;-70
2024/03/01 00:24:33;;;;;;;18.75;8.75;;;;;;;4.10;58.82;100837.69;4916068;28;20527;-72
2024/03/01 00:26:59;;;;;;;17.63;9.02;;;;;;;4.09;58.86;100835.06;4943501;28;20038;-71
2024/03/01 00:29:26;;;;;;;17.02;8.68;;;;;;;4.15;59.00;100845.59;4943655;28;20442;-72
2024/03/01 00:31:52;;;;;;;16.17;8.77;;;;;;;4.22;58.78;100863.00;4942694;28;20062;-72
2024/03/01 00:34:18;;;;;;;16.90;9.25;;;;;;;4.19;59.14;100850.88;4946923;28;20046;-71
2024/03/01 00:36:44;;;;;;;17.48;9.07;;;;;;;4.15;59.31;100849.03;4943370;28;20067;-71
2024/03/01 00:39:10;;;;;;;16.13;9.07;;;;;;;4.13;59.02;100852.38;4922905;28;20047;-73
2024/03/01 00:41:36;;;;;;;20.10;9.48;;;;;;;4.07;59.77;100853.06;4946667;28;20090;-74
2024/03/01 00:44:03;;;;;;;19.13;9.25;;;;;;;4.00;59.63;100833.06;4930507;28;20477;-72
2024/03/01 00:46:30;;;;;;;16.33;9.00;;;;;;;3.89;59.80;100802.63;4930205;28;20050;-72
2024/03/01 00:48:56;;;;;;;17.35;9.27;;;;;;;4.09;59.57;100838.50;4946896;28;20517;-71
2024/03/01 00:51:22;;;;;;;14.75;8.70;;;;;;;3.78;59.45;100783.38;4946125;28;20045;-73
2024/03/01 00:53:49;;;;;;;16.90;9.77;;;;;;;4.13;59.80;100853.25;4961087;28;20054;-71
2024/03/01 00:56:16;;;;;;;17.10;9.00;;;;;;;4.25;59.79;100863.09;4930733;28;20070;-71
2024/03/01 00:58:42;;;;;;;15.63;9.30;;;;;;;3.98;59.88;100814.09;4930949;28;20085;-71
2024/03/01 01:01:08;;;;;;;19.92;9.38;;;;;;;4.29;60.31;100870.09;4930029;28;20553;-72
2024/03/01 01:03:34;;;;;;;18.30;9.13;;;;;;;4.31;59.76;100858.16;4927823;28;20051;-72
2024/03/01 01:06:00;;;;;;;14.02;9.27;;;;;;;4.26;60.38;100862.28;4930729;28;20073;-71
2024/03/01 01:08:26;;;;;;;14.68;8.85;;;;;;;4.01;60.06;100827.09;4947156;28;20098;-73
2024/03/01 01:10:52;;;;;;;16.95;8.85;;;;;;;3.93;59.84;100806.22;4930237;28;20035;-71
2024/03/01 01:13:19;;;;;;;21.17;9.43;;;;;;;4.24;59.75;100865.63;4932761;28;20047;-71
2024/03/01 05:25:23;;;;;;;25.95;12.30;;;;;;;4.20;60.80;100988.31;4965594;28;20055;-72
2024/03/01 05:27:50;;;;;;;27.52;14.25;;;;;;;4.22;60.76;101008.19;4965434;28;20183;-73
2024/03/01 05:30:19;;;;;;;21.92;12.73;;;;;;;4.28;60.23;101007.50;4936737;28;20070;-72
2024/03/01 05:32:47;;;;;;;21.33;12.85;;;;;;;3.86;60.54;100941.59;4930034;28;20082;-70
2024/03/01 05:35:14;;;;;;;21.42;12.30;;;;;;;4.19;60.15;101005.47;4950496;28;20043;-72
2024/03/01 05:37:41;;;;;;;23.45;13.05;;;;;;;4.21;60.72;101003.84;4967987;28;20129;-72
2024/03/01 05:40:10;;;;;;;24.48;12.27;;;;;;;3.90;60.54;100948.63;4959197;28;20138;-74
2024/03/01 05:42:38;;;;;;;19.75;11.95;;;;;;;3.82;60.84;100932.03;4926225;28;20035;-73
2024/03/01 05:45:08;;;;;;;21.70;12.63;;;;;;;4.30;60.46;101005.00;4957217;28;20039;-72
2024/03/01 05:47:42;;;;;;;22.52;12.65;;;;;;;3.96;60.73;100950.56;4926603;28;20157;-71
2024/03/01 05:50:09;;;;;;;;;;;;;;;4.31;60.78;101007.63;4954391;28;20054;-72
2024/03/01 05:52:36;;;;;;;22.67;12.10;;;;;;;4.25;60.99;101006.53;4943011;28;19941;-70
2024/03/01 05:55:08;;;;;;;24.13;12.55;;;;;;;4.19;61.03;101009.78;4936129;29;20518;-71
2024/03/01 05:57:35;;;;;;;23.02;13.13;;;;;;;3.96;61.24;100958.28;4939854;28;20050;-71
2024/03/01 06:00:48;;;;;;;24.02;12.50;;;;;;;4.18;61.20;100998.56;4942499;28;20508;-72
2024/03/01 06:02:49;;;;;;;21.40;12.23;;;;;;;4.18;61.65;100993.41;4944989;28;20062;-67
2024/03/01 06:05:15;;;;;;;24.33;13.88;;;;;;;4.31;61.21;101002.47;4932355;28;20448;-73
2024/03/01 06:07:42;;;;;;;27.13;14.30;;;;;;;4.26;61.62;100972.22;4920488;28;20053;-76
2024/03/01 06:10:09;;;;;;;23.50;13.13;;;;;;;4.56;60.76;101020.50;4966103;28;20047;-77
2024/03/01 06:12:35;;;;;;;21.63;12.38;;;;;;;4.27;60.97;100954.22;4946986;28;20043;-74
2024/03/01 06:15:02;;;;;;;22.98;13.32;;;;;;;4.59;61.23;100989.66;4945561;28;20085;-70
2024/03/01 06:17:31;;;;;;;26.55;13.38;;;;;;;4.63;61.23;100994.13;4935036;28;20047;-75
2024/03/01 06:20:00;;;;;;;24.05;13.10;;;;;;;4.70;61.34;100993.50;4946989;28;20043;-75
2024/03/01 06:22:29;;;;;;;23.67;12.70;;;;;;;4.76;61.19;100998.00;4935378;28;20054;-68
2024/03/01 06:24:55;;;;;;;23.65;13.05;;;;;;;5.02;60.77;101021.22;4935395;28;20577;-71
2024/03/01 06:27:21;;;;;;;25.60;13.48;;;;;;;4.79;60.61;100977.47;4916982;28;20048;-70
2024/03/01 06:29:50;;;;;;;23.92;12.65;;;;;;;5.08;60.29;101006.81;4945243;28;20074;-71
2024/03/01 06:32:16;;;;;;;26.10;14.10;;;;;;;5.19;61.13;101008.84;4946029;28;20078;-74
2024/03/01 06:34:47;;;;;;;23.30;13.23;;;;;;;5.06;61.04;100953.41;4933802;28;20054;-73
2024/03/01 06:37:13;;;;;;;22.27;13.27;;;;;;;5.36;59.95;100981.88;4946599;28;20114;-65
2024/03/01 06:39:39;;;;;;;26.45;14.23;;;;;;;5.38;59.68;101008.63;4963343;28;20074;-64
2024/03/01 06:42:05;;;;;;;24.10;13.48;;;;;;;5.51;60.27;101020.22;4945039;28;20513;-65
2024/03/01 06:44:31;;;;;;;25.38;14.32;;;;;;;5.51;59.96;101027.09;4962962;28;20105;-66
2024/03/01 06:47:00;;;;;;;22.90;13.48;;;;;;;5.60;60.20;101032.53;4946505;28;20203;-65
2024/03/01 06:49:26;;;;;;;25.40;14.02;;;;;;;5.59;59.90;101025.63;4930967;28;20046;-66
2024/03/01 06:51:52;;;;;;;26.45;14.35;;;;;;;5.56;60.29;101008.31;4959647;28;20038;-67
2024/03/01 06:54:18;;;;;;;25.75;14.48;;;;;;;5.81;60.12;101044.38;4941868;28;20043;-65
2024/03/01 06:56:46;;;;;;;24.83;14.68;;;;;;;5.77;59.40;101045.97;4942282;28;21098;-68
2024/03/01 06:59:12;;;;;;;25.90;14.52;;;;;;;5.77;59.40;101045.09;4961576;28;20108;-67
2024/03/01 07:01:39;;;;;;;25.27;14.48;;;;;;;5.81;59.41;101050.41;4942983;28;20035;-66
2024/03/01 07:04:05;;;;;;;29.05;15.20;;;;;;;5.68;59.36;101025.03;4936836;28;20105;-67
2024/03/01 07:06:32;;;;;;;27.60;14.38;;;;;;;5.95;58.89;101055.13;4959438;28;20046;-69
2024/03/01 07:08:59;;;;;;;26.23;16.08;;;;;;;6.06;59.34;101053.75;4941422;28;20094;-69
2024/03/01 07:11:26;;;;;;;29.63;15.45;;;;;;;6.09;59.13;101055.53;4943793;28;20050;-69
2024/03/01 07:13:52;;;;;;;30.98;16.08;;;;;;;5.79;59.27;101013.31;4958111;28;20369;-69
2024/03/01 07:16:18;;;;;;;29.13;15.40;;;;;;;6.17;59.11;101062.72;4936082;28;20517;-68
2024/03/01 07:18:45;;;;;;;25.45;15.68;;;;;;;6.03;58.53;101028.72;4941344;28;20049;-68
2024/03/01 07:21:11;;;;;;;27.20;15.63;;;;;;;6.26;58.98;101062.09;4929631;28;20039;-67
2024/03/01 07:23:38;;;;;;;26.17;16.58;;;;;;;6.45;58.73;101065.22;4928369;28;20369;-69
2024/03/01 07:26:04;;;;;;;26.05;16.05;;;;;;;6.55;58.58;101067.19;4929609;28;20167;-67
2024/03/01 07:28:30;;;;;;;25.55;16.23;;;;;;;6.68;58.06;101070.16;4924727;28;20130;-64
2024/03/01 07:30:56;;;;;;;27.65;16.85;;;;;;;6.68;58.33;101065.84;4958466;28;20066;-69
2024/03/01 07:33:22;;;;;;;26.50;16.65;;;;;;;6.77;57.71;101075.56;4941227;28;20051;-67
2024/03/01 07:35:48;;;;;;;28.67;15.93;;;;;;;6.57;57.88;101038.81;4940789;28;20066;-67
2024/03/01 07:38:14;;;;;;;28.60;16.58;;;;;;;6.72;57.92;101053.88;4928255;28;20092;-70
2024/03/01 07:40:40;;;;;;;32.03;17.05;;;;;;;6.74;57.66;101065.13;4959214;28;20065;-69
2024/03/01 07:43:06;;;;;;;30.25;16.67;;;;;;;6.65;57.71;101058.00;4947031;28;20050;-70
2024/03/01 07:45:32;;;;;;;26.80;16.63;;;;;;;6.46;57.62;101023.00;4942691;28;20035;-68
2024/03/01 07:47:59;;;;;;;26.45;16.25;;;;;;;6.38;57.55;101016.72;4959941;28;20066;-70
2024/03/01 07:50:26;;;;;;;25.15;16.95;;;;;;;6.67;57.52;101073.56;4939603;28;20071;-71
2024/03/01 07:52:52;;;;;;;31.48;17.67;;;;;;;6.51;57.26;101062.78;4942523;28;20053;-71
2024/03/01 07:55:18;;;;;;;30.48;17.70;;;;;;;6.61;57.19;101072.56;4935898;28;20658;-71
2024/03/01 07:57:45;;;;;;;32.75;16.75;;;;;;;6.65;57.54;101064.88;4930538;28;20050;-69
2024/03/01 08:00:12;;;;;;;26.60;16.85;;;;;;;6.70;57.06;101060.72;4897792;28;20130;-68
2024/03/01 08:02:38;;;;;;;35.63;17.40;;;;;;;6.78;57.77;101067.84;4923509;28;20395;-69
2024/03/01 08:05:04;;;;;;;27.67;16.25;;;;;;;6.91;57.10;101063.88;4940110;28;20034;-67
2024/03/01 08:07:30;;;;;;;31.13;17.00;;;;;;;6.86;56.92;101033.53;4945902;28;20051;-67
2024/03/01 08:09:56;;;;;;;26.30;16.60;;;;;;;7.06;56.75;101054.75;4914170;28;20168;-68
2024/03/01 08:12:22;;;;;;;27.13;15.25;;;;;;;7.06;55.37;101067.69;4934397;28;20465;-67
2024/03/01 08:14:51;;;;;;;35.95;20.90;;;;;;;7.04;56.55;101067.66;4941459;28;20494;-66
2024/03/01 08:17:18;;;;;;;26.35;16.35;;;;;;;6.97;57.00;101042.44;4939112;28;20061;-66
2024/03/01 08:19:45;;;;;;;28.52;18.35;;;;;;;7.14;56.48;101045.47;4922702;28;20046;-68
2024/03/01 08:22:14;;;;;;;27.33;17.45;;;;;;;7.12;56.46;101051.44;4943372;28;20047;-71
2024/03/01 08:24:53;;;;;;;30.85;18.77;;;;;;;6.95;56.11;101033.78;4943589;28;20157;-68
2024/03/01 08:27:24;;;;;;;31.08;18.15;;;;;;;7.17;56.42;101062.78;4930870;28;20051;-66
2024/03/01 08:29:51;;;;;;;29.20;17.20;;;;;;;7.16;56.19;101061.94;4955928;28;20055;-66
2024/03/01 08:32:42;;;;;;;34.53;20.10;;;;;;;7.23;56.56;101061.22;4943764;28;20189;-68
2024/03/01 08:35:18;;;;;;;31.63;18.17;;;;;;;7.33;56.31;101062.31;4923564;28;20049;-66
2024/03/01 08:37:45;;;;;;;28.15;16.80;;;;;;;7.35;56.15;101058.06;4955164;28;20035;-69
2024/03/01 08:40:33;;;;;;;29.65;17.10;;;;;;;7.38;55.89;101065.06;4924560;28;20105;-66
2024/03/01 08:43:01;;;;;;;29.20;18.17;;;;;;;7.20;56.05;101019.72;4939204;28;20043;-66
2024/03/01 08:45:44;;;;;;;27.98;15.63;;;;;;;7.45;55.97;101047.94;4943466;28;20049;-67
2024/03/01 08:48:21;;;;;;;28.50;17.08;;;;;;;7.49;55.56;101048.03;4941664;28;20134;-68
2024/03/01 08:50:52;;;;;;;26.83;16.35;;;;;;;7.62;56.25;101041.44;4940241;28;20054;-66
2024/03/01 08:53:54;;;;;;;28.38;17.40;;;;;;;7.71;55.16;101071.00;4925540;28;20050;-68
2024/03/01 08:56:22;;;;;;;24.23;15.77;;;;;;;7.63;55.69;101048.38;4937205;28;20482;-67
2024/03/01 08:58:49;;;;;;;29.50;17.13;;;;;;;7.78;55.18;101070.28;4918101;28;20619;-68
2024/03/01 09:01:37;;;;;;;26.45;16.48;;;;;;;7.77;54.93;101077.19;4922932;28;20039;-67
2024/03/01 09:04:17;;;;;;;29.98;16.33;;;;;;;7.72;54.83;101083.97;4956482;28;20515;-68
2024/03/01 09:06:47;;;;;;;25.27;16.83;;;;;;;7.71;55.33;101058.03;4954261;28;20039;-66
2024/03/01 09:09:21;;;;;;;32.05;17.77;;;;;;;7.89;55.00;101071.41;4939977;28;20134;-68
2024/03/01 09:11:47;;;;;;;28.40;17.45;;;;;;;8.10;54.71;101077.91;4954653;28;20047;-64
2024/03/01 09:14:31;;;;;;;29.55;17.15;;;;;;;8.35;54.40;101079.28;4942874;28;20042;-66
2024/03/01 09:17:01;;;;;;;27.67;17.38;;;;;;;8.52;54.63;101071.91;4927949;28;20685;-66
2024/03/01 09:19:31;;;;;;;29.00;17.83;;;;;;;8.69;53.93;101059.25;4911639;28;20038;-65
2024/03/01 09:22:00;;;;;;;30.35;18.60;;;;;;;8.74;53.60;101042.03;4939853;28;20166;-65
2024/03/01 09:24:26;;;;;;;29.10;17.83;;;;;;;8.98;53.31;101077.06;4955347;28;20050;-66
2024/03/01 09:26:55;;;;;;;34.45;20.08;;;;;;;8.93;52.64;101076.13;4942281;28;20137;-66
2024/03/01 09:29:39;;;;;;;30.20;18.77;;;;;;;9.04;52.92;101078.94;4938423;28;22270;-64
2024/03/01 09:32:06;;;;;;;31.75;19.88;;;;;;;9.01;53.29;101050.31;4924803;28;20039;-65
2024/03/01 09:34:35;;;;;;;31.98;20.17;;;;;;;9.11;52.17;101066.91;4926273;28;20055;-69
2024/03/01 09:37:07;;;;;;;30.95;19.63;;;;;;;9.43;52.51;101089.94;4932123;28;21359;-64
2024/03/01 09:39:34;;;;;;;30.48;19.45;;;;;;;9.64;52.04;101085.09;4957370;28;20043;-69
2024/03/01 09:42:09;;;;;;;32.08;20.17;;;;;;;9.36;51.80;101046.56;4932739;28;20039;-68
2024/03/01 09:44:55;;;;;;;36.05;20.58;;;;;;;9.77;51.87;101085.28;4943459;28;20244;-67
2024/03/01 09:47:45;;;;;;;30.85;19.25;;;;;;;10.29;51.85;101064.31;4931661;28;20085;-69
2024/03/01 09:50:30;;;;;;;33.13;20.50;;;;;;;10.81;50.57;101077.09;4917184;28;20425;-66
2024/03/01 09:53:32;;;;;;;35.28;21.13;;;;;;;10.62;49.10;101073.41;4957791;28;20043;-68
2024/03/01 09:56:06;;;;;;;28.88;18.15;;;;;;;10.16;49.15;101045.09;4960782;28;20057;-69
2024/03/01 09:58:58;;;;;;;33.90;19.20;;;;;;;10.18;49.41;101069.41;4925419;28;20038;-67
2024/03/01 10:01:31;;;;;;;34.95;19.42;;;;;;;10.30;50.56;101071.28;4941058;28;20090;-67
2024/03/01 10:04:13;;;;;;;38.95;20.52;;;;;;;10.81;50.61;101053.66;4951280;28;20093;-70
2024/03/01 10:07:10;;;;;;;31.05;18.80;;;;;;;11.08;49.59;101069.53;4964609;28;20047;-69
2024/03/01 10:09:59;;;;;;;53.63;30.85;;;;;;;10.89;48.41;101071.97;4949608;28;20039;-67
2024/03/01 10:12:56;;;;;;;38.00;22.73;;;;;;;10.74;48.80;101070.06;4940748;28;20395;-68
2024/03/01 10:15:28;;;;;;;36.53;21.20;;;;;;;10.89;49.45;101065.91;4965433;28;20046;-69
2024/03/01 10:18:35;;;;;;;38.30;22.23;;;;;;;11.45;48.86;101049.88;4935103;28;20066;-72
2024/03/01 10:21:16;;;;;;;38.83;22.85;;;;;;;12.10;48.03;101045.94;4943680;28;20173;-69
2024/03/01 10:24:19;;;;;;;43.22;25.65;;;;;;;12.57;48.14;101047.84;4932409;28;20121;-66
2024/03/01 10:27:01;;;;;;;40.65;23.55;;;;;;;12.57;46.46;101021.75;4934985;28;20051;-67
2024/03/01 10:29:42;;;;;;;40.90;23.90;;;;;;;12.68;46.35;101044.41;4968856;28;20574;-66
2024/03/01 10:32:31;;;;;;;37.45;21.50;;;;;;;13.03;46.34;101046.19;4935229;28;20119;-64
2024/03/01 10:35:06;;;;;;;34.50;21.10;;;;;;;13.36;46.23;101042.72;4965239;28;20263;-65
2024/03/01 10:37:53;;;;;;;32.47;20.60;;;;;;;13.65;45.04;101043.59;4949528;28;20085;-63
2024/03/01 10:40:20;;;;;;;39.03;22.65;;;;;;;13.23;44.32;101047.06;4945770;28;20045;-64
2024/03/01 10:43:14;;;;;;;34.90;19.92;;;;;;;13.36;44.83;101060.13;4944651;28;20039;-65
2024/03/01 10:46:10;;;;;;;28.80;17.63;;;;;;;13.03;44.87;101056.66;4946509;28;20048;-64
2024/03/01 10:48:46;;;;;;;29.73;17.35;;;;;;;12.91;44.39;101052.28;4935853;28;20571;-65
2024/03/01 10:51:15;;;;;;;27.92;17.15;;;;;;;12.87;44.84;101037.47;4962468;28;20047;-69
2024/03/01 10:53:51;;;;;;;23.65;15.13;;;;;;;12.96;44.64;101035.72;4933123;28;20034;-66
2024/03/01 10:56:20;;;;;;;20.13;13.30;;;;;;;12.63;43.55;101021.78;4945361;28;20094;-65
2024/03/01 10:59:06;;;;;;;29.20;18.67;;;;;;;12.48;44.59;101066.09;4932436;28;20058;-68
2024/03/01 11:01:46;;;;;;;34.70;21.30;;;;;;;12.61;44.85;101049.63;4926321;28;20054;-66
2024/03/01 11:04:29;;;;;;;24.05;14.90;;;;;;;12.43;43.61;101055.66;4942450;28;20085;-67
2024/03/01 11:07:17;;;;;;;36.03;22.08;;;;;;;11.78;44.66;100997.06;4937866;28;20038;-70
2024/03/01 11:09:52;;;;;;;21.98;13.98;;;;;;;11.72;44.28;101050.03;4929036;28;20039;-67
2024/03/01 11:12:31;;;;;;;25.67;14.43;;;;;;;11.20;45.35;101042.72;4944251;28;20517;-70
2024/03/01 11:15:07;;;;;;;28.83;16.70;;;;;;;10.92;45.48;101071.13;4929466;28;20042;-70
2024/03/01 11:17:38;;;;;;;39.13;23.25;;;;;;;10.91;46.45;101069.38;4964855;28;20129;-73
2024/03/01 11:20:13;;;;;;;23.83;13.75;;;;;;;10.74;45.55;101075.28;4935694;28;20098;-74
2024/03/01 11:23:08;;;;;;;21.73;13.65;;;;;;;10.63;46.88;101074.28;4938165;28;20030;-75
2024/03/01 11:25:58;;;;;;;21.80;13.77;;;;;;;10.52;46.32;101067.22;4940335;28;20046;-71
2024/03/01 11:28:28;;;;;;;23.65;13.95;;;;;;;10.44;47.22;101058.47;4965276;28;20042;-73
2024/03/01 11:31:08;;;;;;;22.60;13.70;;;;;;;10.40;47.05;101056.69;4937709;28;20073;-72
2024/03/01 11:33:39;;;;;;;22.40;14.02;;;;;;;10.48;47.25;101068.03;4945848;28;20039;-71
2024/03/01 11:36:18;;;;;;;22.50;13.98;;;;;;;10.34;46.23;101074.78;4965530;28;20034;-75
2024/03/01 11:38:59;;;;;;;25.52;14.15;;;;;;;9.99;47.53;101039.66;4930456;28;20039;-72
2024/03/01 11:41:34;;;;;;;26.38;14.77;;;;;;;9.94;47.85;101077.72;4929541;28;20034;-72
2024/03/01 11:44:41;;;;;;;22.42;14.10;;;;;;;10.01;48.10;101068.31;4935301;28;20045;-72
2024/03/01 11:47:42;;;;;;;23.85;13.70;;;;;;;9.93;47.98;101076.84;4873703;28;20043;-71
2024/03/01 11:50:17;;;;;;;25.67;14.20;;;;;;;9.80;47.70;101077.53;4915294;28;20081;-75
2024/03/01 11:52:53;;;;;;;22.95;13.93;;;;;;;9.38;48.34;101061.31;4929803;28;20046;-75
2024/03/01 11:55:33;;;;;;;24.65;14.00;;;;;;;9.36;49.08;101056.94;4948365;28;20062;-72
2024/03/01 11:58:27;;;;;;;19.48;12.32;;;;;;;9.39;48.67;101077.75;4938058;28;20536;-71
2024/03/01 12:01:27;;;;;;;25.80;13.88;;;;;;;9.40;48.94;101080.38;4943687;28;20133;-70
2024/03/01 12:03:56;;;;;;;27.17;15.48;;;;;;;9.47;48.99;101091.75;4917981;28;20133;-71
2024/03/01 12:06:54;;;;;;;37.92;20.20;;;;;;;9.35;48.90;101082.03;4918613;28;20129;-71
2024/03/01 12:09:44;;;;;;;42.90;23.52;;;;;;;9.42;49.29;101083.00;4965363;28;20039;-70
2024/03/01 12:12:48;;;;;;;42.42;23.55;;;;;;;9.53;49.35;101088.38;4967184;28;20039;-74
2024/03/01 12:15:24;;;;;;;43.25;24.08;;;;;;;9.44;49.45;101079.59;4922050;28;20043;-72
2024/03/01 12:18:20;;;;;;;35.63;19.83;;;;;;;9.53;49.43;101096.16;4933730;28;20034;-76
2024/03/01 12:21:16;;;;;;;32.58;16.55;;;;;;;9.38;49.25;101061.31;4936098;28;20134;-73
2024/03/01 12:24:19;;;;;;;28.80;16.25;;;;;;;9.50;49.35;101097.00;4965265;28;20390;-73
2024/03/01 12:27:10;;;;;;;37.13;22.52;;;;;;;9.31;48.52;101099.28;4948523;28;20055;-73
2024/03/01 12:30:21;;;;;;;36.50;21.08;;;;;;;8.81;48.75;101094.94;4929880;28;20042;-72
2024/03/01 12:33:10;;;;;;;33.17;19.63;;;;;;;8.50;49.93;101091.75;4874859;29;20059;-72
2024/03/01 12:36:07;;;;;;;33.13;19.35;;;;;;;8.24;50.12;101084.25;4944911;28;20047;-72
2024/03/01 12:38:39;;;;;;;29.15;18.25;;;;;;;8.07;50.72;101102.03;4943442;28;20042;-71
2024/03/01 12:41:18;;;;;;;31.27;18.27;;;;;;;8.14;51.30;101098.75;4948019;28;20959;-72
2024/03/01 12:44:15;;;;;;;34.67;20.90;;;;;;;8.10;51.18;101098.66;4950581;28;20112;-73
2024/03/01 12:46:46;;;;;;;34.08;20.55;;;;;;;7.96;51.51;101106.97;4963611;28;20051;-73
2024/03/01 12:49:40;;;;;;;37.88;20.23;;;;;;;7.79;51.66;101106.63;4937982;28;20042;-73
2024/03/01 12:52:15;;;;;;;39.47;21.42;;;;;;;7.58;51.63;101093.16;4931525;28;20070;-71
2024/03/01 12:55:14;;;;;;;38.38;20.85;;;;;;;7.52;52.29;101109.38;4959568;28;20074;-69
2024/03/01 12:57:48;;;;;;;43.05;20.92;;;;;;;7.47;52.48;101109.28;4946967;28;20042;-74
2024/03/01 13:00:23;;;;;;;37.92;21.13;;;;;;;7.13;52.50;101060.94;4934994;28;20050;-76
2024/03/01 13:03:19;;;;;;;39.33;20.17;;;;;;;7.28;53.22;101100.19;4948415;28;20638;-74
2024/03/01 13:05:49;;;;;;;35.35;19.90;;;;;;;7.47;53.44;101105.84;4966467;28;20038;-73
2024/03/01 13:08:23;;;;;;;33.80;20.17;;;;;;;7.46;52.31;101112.72;4923713;28;20039;-73
2024/03/01 13:10:49;;;;;;;37.00;19.88;;;;;;;7.29;53.13;101114.88;4956658;28;20038;-72
2024/03/01 13:13:21;;;;;;;28.92;18.40;;;;;;;7.18;53.66;101096.47;4971397;28;20039;-73
2024/03/01 13:16:07;;;;;;;30.08;17.02;;;;;;;7.30;53.57;101111.44;4927727;28;20074;-73
2024/03/01 13:18:44;;;;;;;35.58;18.42;;;;;;;7.13;53.28;101076.50;4955358;28;20054;-72
2024/03/01 13:21:31;;;;;;;34.70;19.38;;;;;;;7.15;54.17;101114.53;4953329;28;20046;-75
2024/03/01 13:24:39;;;;;;;36.75;21.40;;;;;;;7.07;53.91;101108.28;4939774;28;20197;-71
2024/03/01 13:27:15;;;;;;;37.13;21.20;;;;;;;6.71;53.54;101115.06;4953007;28;20066;-73
2024/03/01 13:29:43;;;;;;;37.10;21.80;;;;;;;6.57;54.86;101101.75;4953439;28;20034;-79
2024/03/01 13:32:21;;;;;;;42.00;23.85;;;;;;;6.51;54.18;101096.38;4922448;28;20035;-71
2024/03/01 13:35:01;;;;;;;43.00;25.63;;;;;;;6.43;54.46;101096.19;4918716;28;20046;-71
2024/03/01 13:37:57;;;;;;;44.40;25.55;;;;;;;6.10;54.87;101090.91;4955223;28;20050;-74
2024/03/01 13:40:37;;;;;;;60.38;32.03;;;;;;;6.21;54.92;101128.28;4921362;28;20050;-73
2024/03/01 13:43:12;;;;;;;62.42;33.70;;;;;;;6.43;55.85;101131.53;4923622;28;20046;-76
2024/03/01 13:45:42;;;;;;;57.05;32.20;;;;;;;6.44;55.78;101115.19;4956261;28;20073;-76
2024/03/01 13:48:46;;;;;;;60.83;32.30;;;;;;;6.61;55.91;101120.84;4940735;28;20059;-82
2024/03/01 13:52:11;;;;;;;65.53;34.17;;;;;;;6.79;55.88;101135.97;4947100;28;20042;-81
2024/03/01 13:59:18;;;;;;;;;;;;;;;;;;;;;
2024/03/01 14:03:17;;;;;;;;;;;;;;;;;;;;;
2024/03/01 14:07:12;;;;;;;46.22;26.40;;;;;;;5.98;55.72;101133.59;4959466;28;20046;-80
2024/03/01 14:10:10;;;;;;;51.78;28.50;;;;;;;5.23;56.29;101013.28;4961268;28;20053;-79
2024/03/01 14:13:13;;;;;;;48.05;28.60;;;;;;;6.02;56.21;101132.91;4932698;28;20043;-81
2024/03/01 14:16:58;;;;;;;;;;;;;;;;;;;;;
2024/03/01 14:19:53;;;;;;;;;;;;;;;;;;;;;
2024/03/01 14:22:31;;;;;;;47.85;26.45;;;;;;;5.19;55.11;101032.06;4996334;28;20045;-74
2024/03/01 14:25:10;;;;;;;47.15;25.73;;;;;;;5.26;55.82;101059.84;4994174;28;20042;-80
2024/03/01 14:27:44;;;;;;;45.63;25.52;;;;;;;5.64;57.37;101122.19;4957751;28;20042;-75
2024/03/01 14:33:41;;;;;;;41.45;24.35;;;;;;;5.24;56.60;101095.06;4993276;28;20046;-85
2024/03/01 14:36:55;;;;;;;44.70;25.77;;;;;;;4.89;57.32;101049.16;4981947;28;20053;-83
2024/03/01 14:39:43;;;;;;;43.53;23.95;;;;;;;4.73;57.00;101049.47;4966482;28;20042;-88
2024/03/01 14:43:17;;;;;;;49.53;25.20;;;;;;;5.08;57.91;101089.38;4976627;28;20122;-83
2024/03/01 14:45:53;;;;;;;49.75;26.30;;;;;;;5.56;57.39;101159.81;4976432;28;20089;-80
2024/03/01 14:48:36;;;;;;;46.65;26.98;;;;;;;5.13;57.57;101086.94;4979341;28;20046;-80
2024/03/01 14:51:09;;;;;;;46.97;26.60;;;;;;;4.95;56.63;101087.22;4976457;28;20045;-79
2024/03/01 14:53:39;;;;;;;;;;;;;;;5.35;58.25;101159.94;4960662;28;20045;-79
2024/03/01 14:56:10;;;;;;;50.45;26.30;;;;;;;4.60;58.27;101017.22;4989447;28;19924;-79
2024/03/01 14:58:37;;;;;;;55.60;27.35;;;;;;;5.35;58.15;101128.97;4963457;28;20041;-78
2024/03/01 15:01:04;;;;;;;59.55;30.05;;;;;;;5.51;57.91;101157.06;4950203;28;20069;-79
2024/03/01 15:03:33;;;;;;;63.20;31.45;;;;;;;5.29;57.90;101114.16;4969615;28;20396;-71
2024/03/01 15:06:03;;;;;;;57.10;27.45;;;;;;;5.38;57.97;101121.31;4973763;28;20447;-73
2024/03/01 15:08:29;;;;;;;51.47;27.45;;;;;;;5.29;58.02;101119.31;4942979;28;20073;-74
2024/03/01 15:11:09;;;;;;;55.80;26.75;;;;;;;5.42;58.04;101131.81;4973477;28;20034;-73
2024/03/01 15:13:38;;;;;;;50.17;25.38;;;;;;;5.16;57.50;101093.94;4973168;28;20595;-76
2024/03/01 15:16:05;;;;;;;47.92;25.58;;;;;;;5.35;58.17;101147.03;4943645;28;20042;-74
2024/03/01 15:18:41;;;;;;;49.47;25.42;;;;;;;4.98;58.52;101120.81;4954919;28;20049;-79
2024/03/01 15:21:11;;;;;;;52.00;28.85;;;;;;;5.23;57.74;101181.94;4970490;28;20121;-75
2024/03/01 15:23:42;;;;;;;54.95;27.60;;;;;;;4.82;58.20;101116.84;4962189;28;20113;-75
2024/03/01 15:26:09;;;;;;;47.87;26.13;;;;;;;5.35;58.88;101188.34;4977263;28;20046;-75
2024/03/01 15:28:44;;;;;;;50.10;24.77;;;;;;;5.42;59.10;101169.66;4968307;28;20313;-75
2024/03/01 15:31:20;;;;;;;47.65;27.05;;;;;;;4.60;58.51;101038.72;4956347;28;20086;-74
2024/03/01 15:33:46;;;;;;;47.50;26.20;;;;;;;5.55;58.63;101184.72;4959499;28;20048;-82
2024/03/01 15:36:13;;;;;;;52.53;27.35;;;;;;;5.50;58.18;101162.16;4976138;28;20037;-77
2024/03/01 15:38:39;;;;;;;45.40;25.10;;;;;;;5.53;58.65;101181.22;4977182;28;20080;-74
2024/03/01 15:41:05;;;;;;;48.75;26.42;;;;;;;5.11;58.74;101110.13;4973080;28;20050;-77
2024/03/01 15:43:36;;;;;;;54.60;26.02;;;;;;;5.24;58.23;101138.94;4959634;28;20034;-76
2024/03/01 15:46:03;;;;;;;55.42;28.85;;;;;;;5.54;58.68;101185.56;4954708;28;20583;-73
2024/03/01 15:48:29;;;;;;;57.92;29.40;;;;;;;5.32;58.46;101132.34;4993677;28;20461;-77
2024/03/01 15:50:56;;;;;;;63.28;31.00;;;;;;;5.38;58.87;101139.41;4956067;28;20045;-77
2024/03/01 15:53:22;;;;;;;72.15;34.65;;;;;;;5.49;58.10;101163.88;4963572;28;20185;-79
2024/03/01 15:55:57;;;;;;;63.80;31.67;;;;;;;5.23;57.69;101150.97;4972782;28;20483;-76
2024/03/01 15:58:24;;;;;;;77.03;35.53;;;;;;;5.31;58.35;101179.63;4973471;28;20034;-77
2024/03/01 16:00:50;;;;;;;65.45;31.83;;;;;;;5.40;58.81;101185.13;4977979;28;20041;-80
2024/03/01 16:03:17;;;;;;;65.55;28.50;;;;;;;5.08;57.95;101130.66;4991174;28;20045;-77
2024/03/01 16:05:44;;;;;;;65.60;27.42;;;;;;;5.18;58.69;101177.44;4988779;28;20069;-77
2024/03/01 16:08:21;;;;;;;63.35;26.60;;;;;;;5.34;58.60;101182.31;4977021;28;20085;-77
2024/03/01 16:10:54;;;;;;;62.33;26.00;;;;;;;5.26;58.58;101194.94;4966364;28;20038;-77
2024/03/01 16:13:21;;;;;;;;;;;;;;;5.29;59.32;101183.84;4954338;28;20034;-78
2024/03/01 16:15:56;;;;;;;49.30;21.25;;;;;;;4.82;58.83;101106.53;4991888;28;19971;-73
2024/03/01 16:18:24;;;;;;;41.58;20.63;;;;;;;5.25;58.68;101189.72;4965918;28;20116;-72